Time;durP1;ratioP1;P1;durP2;ratioP2;P2;SDS_P1;SDS_P2;PMS_P1;PMS_P2;Temp;Humidity;BMP_temperature;BMP_pressure;BME280_temperature;BME280_humidity;BME280_pressure;Samples;Min_cycle;Max_cycle;Signal;HPM_P1;HPM_P2
2023/01/05 00:00:09;;;;;;;0.28;0.15;;;;;;;9.82;100.00;99119.25;5043091;28;20740;-79
2023/01/05 00:02:35;;;;;;;0.60;0.28;;;;;;;10.02;100.00;99168.16;5010883;28;20163;-79
2023/01/05 00:05:01;;;;;;;2.03;0.35;;;;;;;9.81;100.00;99131.13;5014545;28;20032;-79
2023/01/05 00:07:27;;;;;;;0.25;0.22;;;;;;;9.95;100.00;99159.94;5012043;28;20095;-79
2023/01/05 00:09:52;;;;;;;2.17;0.50;;;;;;;9.77;100.00;99132.50;5011634;28;20022;-79
2023/01/05 00:23:18;;;;;;;0.40;0.20;;;;;;;9.71;100.00;99157.59;5031664;28;20044;-79
2023/01/05 00:25:43;;;;;;;0.30;0.30;;;;;;;9.77;100.00;99173.91;5014147;28;20030;-79
2023/01/05 00:28:08;;;;;;;0.80;0.30;;;;;;;9.72;100.00;99168.22;5011789;28;20033;-79
2023/01/05 00:30:43;;;;;;;0.68;0.40;;;;;;;9.68;100.00;99164.22;5028229;28;20088;-79
2023/01/05 00:33:16;;;;;;;1.52;0.40;;;;;;;9.81;100.00;99160.84;5010664;28;20033;-79
2023/01/05 00:35:42;;;;;;;0.50;0.20;;;;;;;9.79;100.00;99147.50;5023328;28;20033;-79
2023/01/05 00:38:08;;;;;;;0.52;0.20;;;;;;;9.72;100.00;99133.09;5026628;28;20025;-79
2023/01/05 00:40:34;;;;;;;1.10;0.50;;;;;;;9.73;100.00;99139.34;5011514;28;20021;-78
2023/01/05 00:43:00;;;;;;;0.98;0.30;;;;;;;9.87;100.00;99136.56;5029159;28;20442;-79
2023/01/05 00:45:25;;;;;;;0.68;0.30;;;;;;;10.00;100.00;99151.28;5010703;28;20025;-79
2023/01/05 00:47:52;;;;;;;0.85;0.40;;;;;;;10.02;100.00;99150.06;5013369;28;20025;-79
2023/01/05 00:50:18;;;;;;;0.32;0.20;;;;;;;10.00;100.00;99146.69;5013214;28;20032;-79
2023/01/05 00:52:44;;;;;;;1.05;0.30;;;;;;;10.13;100.00;99156.81;4996876;28;20030;-79
2023/01/05 00:55:09;;;;;;;0.10;0.10;;;;;;;10.01;100.00;99152.97;5009447;28;20032;-79
2023/01/05 00:57:35;;;;;;;1.20;0.50;;;;;;;10.13;100.00;99156.00;5013025;28;20025;-79
2023/01/05 01:00:02;;;;;;;0.60;0.38;;;;;;;10.15;100.00;99157.47;5011932;28;20056;-79
2023/01/05 01:02:27;;;;;;;0.50;0.40;;;;;;;10.10;100.00;99141.00;5010958;28;20083;-79
2023/01/05 01:04:53;;;;;;;1.50;0.30;;;;;;;10.16;100.00;99144.78;5027556;28;20391;-79
2023/01/05 01:07:18;;;;;;;0.82;0.30;;;;;;;10.13;100.00;99129.78;5024841;28;20483;-79
2023/01/05 01:09:43;;;;;;;2.05;0.40;;;;;;;10.10;100.00;99141.00;5010484;28;20071;-79
2023/01/05 01:12:09;;;;;;;1.10;0.40;;;;;;;10.10;100.00;99133.72;5009782;28;20036;-79
2023/01/05 01:14:34;;;;;;;0.30;0.17;;;;;;;10.13;100.00;99140.59;5011321;28;20029;-79
2023/01/05 01:17:00;;;;;;;0.75;0.40;;;;;;;10.10;100.00;99136.41;5012951;28;20684;-79
2023/01/05 01:19:25;;;;;;;1.00;0.30;;;;;;;10.17;100.00;99143.78;5014318;28;20120;-79
2023/01/05 01:21:51;;;;;;;0.70;0.30;;;;;;;10.21;100.00;99156.69;5034365;28;20029;-79
2023/01/05 01:24:21;;;;;;;2.03;0.40;;;;;;;10.14;100.00;99127.91;5016606;28;20040;-79
2023/01/05 01:26:47;;;;;;;1.33;0.40;;;;;;;10.21;100.00;99137.78;5015916;28;20024;-79
2023/01/05 01:29:12;;;;;;;0.80;0.20;;;;;;;10.18;100.00;99127.34;5014192;28;20029;-79
2023/01/05 01:31:38;;;;;;;0.52;0.22;;;;;;;10.09;100.00;99112.28;5014705;28;20037;-79
2023/01/05 01:34:03;;;;;;;0.70;0.32;;;;;;;10.27;100.00;99145.16;5033483;28;20400;-79
2023/01/05 01:36:29;;;;;;;1.63;0.40;;;;;;;10.24;100.00;99150.94;5016538;28;20108;-79
2023/01/05 01:38:54;;;;;;;0.70;0.30;;;;;;;10.30;100.00;99150.19;5034078;28;20053;-79
2023/01/05 01:41:19;;;;;;;0.88;0.20;;;;;;;10.04;100.00;99107.47;5017179;28;20390;-79
2023/01/05 01:43:48;;;;;;;1.35;0.47;;;;;;;10.28;100.00;99143.28;5033319;28;20652;-79
2023/01/05 01:46:15;;;;;;;0.43;0.20;;;;;;;10.47;100.00;99153.44;5016024;28;20446;-79
2023/01/05 01:49:09;;;;;;;2.38;0.30;;;;;;;10.42;100.00;99144.25;5014869;28;20471;-79
2023/01/05 01:51:43;;;;;;;1.70;0.55;;;;;;;10.19;100.00;99137.16;5031703;28;20037;-79
2023/01/05 01:54:11;;;;;;;2.35;0.63;;;;;;;10.34;100.00;99141.69;5012789;28;20394;-79
2023/01/05 01:56:42;;;;;;;1.50;0.75;;;;;;;10.37;100.00;99149.41;5031731;28;20031;-79
2023/01/05 01:59:08;;;;;;;0.28;0.10;;;;;;;10.40;100.00;99157.13;5014225;28;20109;-79
2023/01/05 02:01:34;;;;;;;0.22;0.05;;;;;;;10.34;100.00;99131.69;5013708;28;20049;-79
2023/01/05 02:04:00;;;;;;;1.58;0.43;;;;;;;10.37;100.00;99138.56;5016498;28;20052;-79
2023/01/05 02:06:25;;;;;;;0.60;0.40;;;;;;;10.36;100.00;99124.22;5032710;28;20053;-79
2023/01/05 02:08:51;;;;;;;0.40;0.22;;;;;;;10.22;100.00;99104.31;5013879;28;20478;-79
2023/01/05 02:11:28;;;;;;;0.22;0.10;;;;;;;10.58;100.00;99132.31;5032943;28;20033;-79
2023/01/05 02:14:20;;;;;;;0.52;0.20;;;;;;;10.55;100.00;99116.47;5026206;28;20021;-79
2023/01/05 02:16:48;;;;;;;0.17;0.10;;;;;;;10.45;100.00;99106.84;5013944;28;20025;-79
2023/01/05 02:19:31;;;;;;;0.28;0.03;;;;;;;10.61;100.00;99103.03;5008937;28;20029;-79
2023/01/05 02:22:32;;;;;;;0.30;0.10;;;;;;;10.68;100.00;99111.16;5030928;28;20053;-78
2023/01/05 02:25:34;;;;;;;0.00;0.00;;;;;;;10.71;100.00;99108.91;4977408;28;20442;-79
2023/01/05 02:28:33;;;;;;;0.75;0.20;;;;;;;10.75;100.00;99115.59;5015612;28;20029;-79
2023/01/05 02:31:07;;;;;;;;;;;;;;;10.75;100.00;99123.72;5020278;28;20090;-79
2023/01/05 02:33:53;;;;;;;0.90;0.10;;;;;;;10.71;100.00;99118.88;5028584;28;19953;-79
2023/01/05 02:36:27;;;;;;;0.10;0.00;;;;;;;10.75;100.00;99101.25;5016378;28;20680;-79
2023/01/05 02:39:33;;;;;;;0.10;0.00;;;;;;;10.89;100.00;99121.94;5013039;28;20075;-79
2023/01/05 02:42:04;;;;;;;0.03;0.03;;;;;;;10.88;100.00;99114.03;5004124;28;20060;-79
2023/01/05 02:44:31;;;;;;;0.00;0.00;;;;;;;10.74;100.00;99115.78;5014519;28;20183;-79
2023/01/05 02:47:30;;;;;;;0.38;0.20;;;;;;;10.71;100.00;99116.19;5010255;28;20040;-79
2023/01/05 02:50:05;;;;;;;;;;;;;;;10.73;100.00;99111.41;5011841;28;20044;-79
2023/01/05 02:52:39;;;;;;;0.38;0.17;;;;;;;10.71;100.00;99122.44;5027021;28;20475;-79
2023/01/05 02:55:09;;;;;;;0.10;0.10;;;;;;;10.57;100.00;99100.91;5030203;28;20741;-79
2023/01/05 02:57:51;;;;;;;0.40;0.10;;;;;;;10.51;100.00;99110.63;5031736;28;20087;-79
2023/01/05 03:00:30;;;;;;;1.65;0.08;;;;;;;10.75;100.00;99126.44;5029981;28;20037;-79
2023/01/05 03:03:05;;;;;;;0.30;0.10;;;;;;;10.79;100.00;99124.16;5014205;28;20052;-79
2023/01/05 03:05:37;;;;;;;0.80;0.30;;;;;;;10.78;100.00;99116.25;5031890;28;20033;-79
2023/01/05 03:08:07;;;;;;;0.00;0.00;;;;;;;10.93;100.00;99115.09;5007550;28;20028;-79
2023/01/05 03:13:42;;;;;;;0.55;0.08;;;;;;;11.39;100.00;99119.13;5029253;28;20040;-79
2023/01/05 03:16:18;;;;;;;0.15;0.00;;;;;;;11.39;100.00;99119.13;5011591;28;20087;-79
2023/01/05 03:35:32;;;;;;;0.35;0.05;;;;;;;11.33;100.00;99125.34;5028771;28;20598;-79
2023/01/05 03:38:17;;;;;;;0.10;0.10;;;;;;;11.35;100.00;99128.69;5015883;28;20071;-79
2023/01/05 03:40:44;;;;;;;4.20;0.20;;;;;;;11.35;100.00;99126.81;5012354;28;20108;-80
2023/01/05 03:43:11;;;;;;;0.32;0.00;;;;;;;11.31;100.00;99117.41;5013985;28;20485;-79
2023/01/05 03:45:41;;;;;;;0.20;0.00;;;;;;;11.33;100.00;99112.63;5014161;28;20407;-79
2023/01/05 03:48:06;;;;;;;0.10;0.10;;;;;;;11.33;100.00;99100.97;5011181;28;20505;-79
2023/01/05 03:50:33;;;;;;;0.00;0.00;;;;;;;11.40;100.00;99115.38;4993309;28;20065;-79
2023/01/05 03:52:58;;;;;;;0.00;0.00;;;;;;;11.45;100.00;99106.63;5010650;28;20032;-79
2023/01/05 03:55:23;;;;;;;0.85;0.05;;;;;;;11.28;100.00;99088.00;5014432;28;20116;-79
2023/01/05 03:57:49;;;;;;;0.20;0.05;;;;;;;11.22;100.00;99067.16;5031798;28;20029;-79
2023/01/05 04:00:14;;;;;;;0.20;0.05;;;;;;;11.27;100.00;99094.47;5013764;28;20475;-78
2023/01/05 04:02:40;;;;;;;2.17;0.00;;;;;;;11.23;100.00;99086.94;5032294;28;20059;-79
2023/01/05 04:05:05;;;;;;;0.43;0.05;;;;;;;11.18;100.00;99090.25;5013234;28;20057;-79
2023/01/05 04:07:31;;;;;;;0.00;0.00;;;;;;;11.39;100.00;99113.69;5034526;28;20116;-76
2023/01/05 04:09:57;;;;;;;0.00;0.00;;;;;;;11.29;100.00;99102.38;5028762;28;20025;-76
2023/01/05 04:12:22;;;;;;;0.10;0.10;;;;;;;11.27;100.00;99094.47;5021882;28;20056;-78
2023/01/05 04:14:47;;;;;;;0.13;0.05;;;;;;;11.27;100.00;99099.06;5035960;28;20513;-76
2023/01/05 04:17:13;;;;;;;0.00;0.00;;;;;;;11.26;100.00;99102.78;5016902;28;20513;-77
2023/01/05 04:19:38;;;;;;;0.00;0.00;;;;;;;11.22;100.00;99096.94;5014178;28;20510;-76
2023/01/05 04:22:03;;;;;;;0.10;0.00;;;;;;;11.26;100.00;99119.03;5034845;28;20029;-77
2023/01/05 04:24:29;;;;;;;0.38;0.20;;;;;;;11.07;100.00;99094.34;5032847;28;20036;-76
2023/01/05 04:26:54;;;;;;;0.22;0.00;;;;;;;11.07;100.00;99113.31;5015752;28;20615;-76
2023/01/05 04:29:19;;;;;;;1.88;0.10;;;;;;;11.21;100.00;99126.94;5008231;28;20036;-76
2023/01/05 04:31:44;;;;;;;0.00;0.00;;;;;;;11.09;100.00;99123.97;5019300;28;20036;-76
2023/01/05 04:34:10;;;;;;;0.00;0.00;;;;;;;11.04;100.00;99119.13;5016648;28;20030;-77
2023/01/05 04:36:35;;;;;;;0.00;0.00;;;;;;;10.93;100.00;99112.41;5015551;28;20036;-79
2023/01/05 04:39:02;;;;;;;0.00;0.00;;;;;;;10.68;100.00;99082.22;5037991;28;20046;-78
2023/01/05 04:41:27;;;;;;;0.00;0.00;;;;;;;10.81;100.00;99115.84;5015510;28;20031;-78
2023/01/05 04:43:52;;;;;;;0.25;0.08;;;;;;;10.81;100.00;99122.09;5034013;28;20025;-78
2023/01/05 04:46:17;;;;;;;0.90;0.00;;;;;;;10.61;100.00;99123.81;5032821;28;20033;-77
2023/01/05 04:48:43;;;;;;;2.38;0.00;;;;;;;10.52;100.00;99136.66;5032969;28;20028;-79
2023/01/05 04:51:08;;;;;;;0.43;0.03;;;;;;;10.43;100.00;99135.13;5016911;28;20025;-78
2023/01/05 04:53:34;;;;;;;0.08;0.08;;;;;;;10.36;100.00;99148.56;5017890;28;20033;-78
2023/01/05 04:56:00;;;;;;;0.65;0.10;;;;;;;10.30;100.00;99152.06;5041339;28;20053;-82
2023/01/05 04:58:26;;;;;;;0.00;0.00;;;;;;;10.17;100.00;99136.50;5011101;28;20450;-78
2023/01/05 05:00:52;;;;;;;0.10;0.10;;;;;;;10.13;100.00;99156.00;5044301;28;20057;-78
2023/01/05 05:03:29;;;;;;;0.00;0.00;;;;;;;10.18;100.00;99154.38;5032421;28;20036;-80
2023/01/05 05:08:31;;;;;;;0.00;0.00;;;;;;;10.22;100.00;99171.91;5019599;28;20061;-61
2023/01/05 05:10:56;;;;;;;0.00;0.00;;;;;;;10.28;100.00;99165.75;5001468;28;20036;-61
2023/01/05 05:13:22;;;;;;;0.00;0.00;;;;;;;10.34;100.00;99174.13;5000923;28;20108;-60
2023/01/05 05:15:47;;;;;;;0.50;0.10;;;;;;;10.35;100.00;99171.25;5008011;28;20034;-61
2023/01/05 05:18:13;;;;;;;3.30;0.10;;;;;;;10.41;100.00;99177.75;5013389;28;20477;-60
2023/01/05 05:20:42;;;;;;;0.10;0.08;;;;;;;10.43;100.00;99178.41;5007296;28;20037;-61
2023/01/05 05:23:07;;;;;;;0.10;0.00;;;;;;;10.45;100.00;99169.06;5010312;28;20029;-60
2023/01/05 05:25:33;;;;;;;0.60;0.30;;;;;;;10.45;100.00;99165.50;5007122;28;20049;-61
2023/01/05 05:27:58;;;;;;;0.25;0.10;;;;;;;10.49;100.00;99161.38;5003622;28;20022;-60
2023/01/05 05:30:23;;;;;;;0.20;0.00;;;;;;;10.49;100.00;99166.78;5000704;28;20030;-60
2023/01/05 05:32:49;;;;;;;0.30;0.10;;;;;;;10.48;100.00;99170.53;5007175;28;20534;-60
2023/01/05 05:35:14;;;;;;;1.20;0.22;;;;;;;10.49;100.00;99173.03;5011368;28;20029;-61
2023/01/05 05:37:40;;;;;;;0.95;0.20;;;;;;;10.51;100.00;99165.56;5006089;28;20108;-61
2023/01/05 05:40:05;;;;;;;0.10;0.10;;;;;;;10.50;100.00;99169.28;4997904;28;20215;-61
2023/01/05 05:42:31;;;;;;;0.35;0.10;;;;;;;10.53;100.00;99184.28;5001488;28;20235;-60
2023/01/05 05:44:56;;;;;;;0.22;0.00;;;;;;;10.52;100.00;99186.16;5007600;28;20051;-60
2023/01/05 05:47:22;;;;;;;2.03;0.30;;;;;;;10.50;100.00;99177.41;5023213;28;20162;-61
2023/01/05 05:49:47;;;;;;;1.52;0.40;;;;;;;10.50;100.00;99179.28;5001036;28;20149;-61
2023/01/05 05:52:12;;;;;;;2.30;0.30;;;;;;;10.50;100.00;99195.50;4997212;28;20068;-61
2023/01/05 05:54:38;;;;;;;0.30;0.10;;;;;;;10.51;100.00;99194.50;5008657;28;20034;-61
2023/01/05 05:57:03;;;;;;;0.73;0.20;;;;;;;10.49;100.00;99201.97;5003749;28;20025;-61
2023/01/05 05:59:29;;;;;;;1.75;0.40;;;;;;;10.45;100.00;99208.78;4997610;28;20041;-61
2023/01/05 06:01:54;;;;;;;1.38;0.35;;;;;;;10.46;100.00;99218.59;5004305;28;20025;-61
2023/01/05 06:04:19;;;;;;;1.83;0.32;;;;;;;10.44;100.00;99215.22;4998423;28;20042;-61
2023/01/05 06:06:45;;;;;;;1.15;0.40;;;;;;;10.41;100.00;99211.03;5010964;28;20083;-61
2023/01/05 06:09:10;;;;;;;1.30;0.38;;;;;;;10.40;100.00;99224.75;5005166;28;20029;-61
2023/01/05 06:11:36;;;;;;;3.58;0.50;;;;;;;10.42;100.00;99220.81;5001504;28;20370;-61
2023/01/05 06:14:01;;;;;;;0.40;0.30;;;;;;;10.38;100.00;99218.72;5005909;28;20025;-61
2023/01/05 06:16:27;;;;;;;3.15;0.60;;;;;;;10.36;100.00;99227.00;4998506;28;20450;-61
2023/01/05 06:18:53;;;;;;;2.92;0.82;;;;;;;10.33;100.00;99232.81;5012377;28;20037;-61
2023/01/05 06:21:20;;;;;;;1.02;0.43;;;;;;;10.35;100.00;99243.41;5015706;28;20535;-61
2023/01/05 06:23:45;;;;;;;4.43;0.52;;;;;;;10.30;100.00;99242.13;5005419;28;20029;-61
2023/01/05 06:26:11;;;;;;;2.15;0.40;;;;;;;10.28;100.00;99237.94;5013522;28;20025;-61
2023/01/05 06:28:36;;;;;;;2.67;0.75;;;;;;;10.28;100.00;99257.69;5013795;28;20079;-61
2023/01/05 06:31:02;;;;;;;5.05;0.80;;;;;;;10.25;100.00;99254.53;5027028;28;20024;-61
2023/01/05 06:33:27;;;;;;;4.82;0.60;;;;;;;10.26;100.00;99254.31;5034254;28;20024;-61
2023/01/05 06:35:53;;;;;;;3.92;0.70;;;;;;;10.22;100.00;99247.63;5004094;28;20049;-61
2023/01/05 06:38:20;;;;;;;4.93;0.93;;;;;;;10.24;100.00;99258.22;5003088;28;20029;-61
2023/01/05 06:40:47;;;;;;;1.58;0.47;;;;;;;10.21;100.00;99264.84;5004107;28;20029;-61
2023/01/05 06:43:12;;;;;;;4.85;0.52;;;;;;;10.21;100.00;99255.91;4999696;28;20473;-61
2023/01/05 06:45:38;;;;;;;4.18;0.65;;;;;;;10.23;100.00;99262.81;5010842;28;20065;-61
2023/01/05 06:48:03;;;;;;;3.90;0.73;;;;;;;10.25;100.00;99273.44;5008304;28;20079;-60
2023/01/05 06:50:30;;;;;;;3.60;0.52;;;;;;;10.22;100.00;99274.66;5025514;28;20104;-61
2023/01/05 06:52:56;;;;;;;5.75;0.90;;;;;;;10.21;100.00;99275.69;5010796;28;20034;-61
2023/01/05 06:55:21;;;;;;;3.63;0.65;;;;;;;10.20;100.00;99271.31;4998994;28;20041;-61
2023/01/05 06:57:47;;;;;;;2.13;0.50;;;;;;;10.22;100.00;99290.06;5013696;28;20021;-61
2023/01/05 07:00:14;;;;;;;3.90;0.98;;;;;;;10.21;100.00;99296.47;5016643;28;20075;-61
2023/01/05 07:02:39;;;;;;;6.47;1.13;;;;;;;10.11;100.00;99296.75;5008316;28;20033;-61
2023/01/05 07:05:06;;;;;;;3.95;0.82;;;;;;;10.15;100.00;99289.13;5026961;28;20032;-61
2023/01/05 07:07:32;;;;;;;3.92;0.65;;;;;;;10.09;100.00;99298.84;5011315;28;20161;-61
2023/01/05 07:09:57;;;;;;;3.45;0.70;;;;;;;10.04;100.00;99307.50;4997181;28;22010;-61
2023/01/05 07:12:23;;;;;;;5.28;0.75;;;;;;;9.98;100.00;99304.69;5006134;28;20039;-61
2023/01/05 07:14:48;;;;;;;5.95;0.70;;;;;;;9.98;100.00;99318.22;5006944;28;20100;-61
2023/01/05 07:17:13;;;;;;;1.20;0.60;;;;;;;9.95;100.00;99299.66;5001458;28;20026;-61
2023/01/05 07:19:39;;;;;;;6.55;1.08;;;;;;;9.95;100.00;99305.91;5005193;28;20469;-61
2023/01/05 07:22:04;;;;;;;4.78;0.90;;;;;;;10.00;100.00;99303.47;5003300;28;20385;-61
2023/01/05 07:24:30;;;;;;;7.82;1.20;;;;;;;9.99;100.00;99291.00;5003292;28;20805;-61
2023/01/05 07:26:57;;;;;;;4.80;0.73;;;;;;;10.03;100.00;99299.56;5001951;28;20132;-61
2023/01/05 07:29:23;;;;;;;10.73;1.10;;;;;;;10.04;100.00;99303.97;5023495;28;20025;-61
2023/01/05 07:31:51;;;;;;;7.55;1.30;;;;;;;10.06;100.00;99302.75;5003164;28;20029;-61
2023/01/05 07:34:17;;;;;;;4.90;0.80;;;;;;;10.06;100.00;99305.47;5014295;28;20044;-61
2023/01/05 07:36:43;;;;;;;6.60;1.02;;;;;;;10.09;100.00;99306.94;5014444;28;20009;-60
2023/01/05 07:39:08;;;;;;;7.45;1.10;;;;;;;10.07;100.00;99314.41;5005595;28;20036;-60
2023/01/05 07:41:33;;;;;;;7.55;0.90;;;;;;;10.12;100.00;99322.78;5004912;28;20120;-61
2023/01/05 07:43:59;;;;;;;2.65;0.63;;;;;;;10.18;100.00;99311.22;5006840;28;20385;-60
2023/01/05 07:46:24;;;;;;;6.93;1.15;;;;;;;10.26;100.00;99312.97;5002650;28;20041;-61
2023/01/05 07:48:49;;;;;;;6.65;1.02;;;;;;;10.23;100.00;99325.00;5000516;28;20076;-61
2023/01/05 07:51:15;;;;;;;13.13;1.02;;;;;;;10.27;100.00;99320.94;5005523;28;20135;-61
2023/01/05 07:53:40;;;;;;;7.63;1.10;;;;;;;10.24;100.00;99332.13;5005307;28;20035;-66
2023/01/05 07:56:06;;;;;;;8.02;0.85;;;;;;;10.24;100.00;99344.78;5015349;28;20045;-62
2023/01/05 07:58:32;;;;;;;7.93;1.38;;;;;;;10.25;100.00;99343.75;5004517;28;20036;-61
2023/01/05 08:01:06;;;;;;;4.95;0.90;;;;;;;10.26;100.00;99346.25;5004945;28;20076;-61
2023/01/05 08:03:32;;;;;;;9.77;1.00;;;;;;;10.24;100.00;99348.34;5004885;28;20033;-60
2023/01/05 08:06:02;;;;;;;3.30;0.90;;;;;;;10.22;100.00;99339.56;5020420;28;20021;-62
2023/01/05 08:08:27;;;;;;;5.63;0.98;;;;;;;10.20;100.00;99335.38;5018618;28;20323;-63
2023/01/05 08:10:53;;;;;;;7.85;1.65;;;;;;;10.35;100.00;99341.63;4999035;28;20045;-62
2023/01/05 08:16:03;;;;;;;4.07;1.13;;;;;;;10.47;100.00;99341.97;5018812;28;20061;-61
2023/01/05 08:18:29;;;;;;;7.72;1.20;;;;;;;10.50;100.00;99331.59;5004671;28;20021;-62
2023/01/05 08:20:56;;;;;;;9.68;1.65;;;;;;;10.65;100.00;99334.28;5006403;28;20108;-63
2023/01/05 08:23:23;;;;;;;5.07;1.30;;;;;;;10.73;100.00;99339.56;5019256;28;20523;-62
2023/01/05 08:25:49;;;;;;;3.53;1.08;;;;;;;10.57;100.00;99345.22;4999156;28;20080;-62
2023/01/05 08:28:14;;;;;;;5.95;0.80;;;;;;;10.61;100.00;99351.09;5007957;28;20506;-61
2023/01/05 08:30:40;;;;;;;4.03;1.15;;;;;;;10.71;100.00;99357.03;4995524;28;20565;-60
2023/01/05 08:33:06;;;;;;;7.50;0.98;;;;;;;10.69;100.00;99364.53;5011634;28;20033;-61
2023/01/05 08:35:31;;;;;;;7.25;1.00;;;;;;;10.70;100.00;99356.19;5017259;28;20456;-61
2023/01/05 08:37:57;;;;;;;5.00;1.23;;;;;;;10.74;100.00;99367.47;5005715;28;20032;-61
2023/01/05 08:40:24;;;;;;;5.20;0.88;;;;;;;10.69;100.00;99367.25;5020398;28;20062;-61
2023/01/05 08:42:49;;;;;;;5.82;1.27;;;;;;;10.62;100.00;99369.84;5006609;28;20048;-61
2023/01/05 08:45:16;;;;;;;7.32;1.10;;;;;;;10.50;100.00;99376.75;5006308;28;20030;-61
2023/01/05 08:47:41;;;;;;;5.38;0.80;;;;;;;10.52;100.00;99380.13;5008369;28;20029;-61
2023/01/05 08:50:09;;;;;;;3.53;1.00;;;;;;;10.56;100.00;99388.69;5023950;28;20033;-61
2023/01/05 08:52:36;;;;;;;6.10;1.05;;;;;;;10.54;100.00;99386.19;5003846;28;20033;-61
2023/01/05 08:55:02;;;;;;;4.15;0.90;;;;;;;10.51;100.00;99392.00;5020105;28;20029;-60
2023/01/05 08:57:29;;;;;;;4.30;0.68;;;;;;;10.49;100.00;99392.16;4999679;28;20098;-56
2023/01/05 08:59:54;;;;;;;5.60;0.47;;;;;;;10.49;100.00;99396.75;5013223;28;20033;-56
2023/01/05 09:02:20;;;;;;;5.35;1.00;;;;;;;10.47;100.00;99396.09;5006862;28;20032;-56
2023/01/05 09:04:45;;;;;;;7.93;1.13;;;;;;;10.46;100.00;99395.25;5004342;28;20033;-56
2023/01/05 09:07:11;;;;;;;5.97;1.30;;;;;;;10.47;100.00;99401.50;5016777;28;20509;-56
2023/01/05 09:09:37;;;;;;;6.18;1.05;;;;;;;10.51;100.00;99392.81;5003336;28;20108;-57
2023/01/05 09:12:03;;;;;;;4.80;1.10;;;;;;;10.60;100.00;99396.25;5012500;28;20091;-59
2023/01/05 09:14:28;;;;;;;3.95;0.80;;;;;;;10.55;100.00;99408.66;5013517;28;20472;-58
2023/01/05 09:16:54;;;;;;;8.48;1.25;;;;;;;10.51;100.00;99408.22;5011139;28;20060;-61
2023/01/05 09:19:19;;;;;;;6.18;0.98;;;;;;;10.59;100.00;99410.00;5005938;28;20084;-61
2023/01/05 09:21:44;;;;;;;7.43;1.30;;;;;;;10.51;100.00;99406.34;5006212;28;20049;-61
2023/01/05 09:24:13;;;;;;;12.82;1.20;;;;;;;10.60;100.00;99408.94;5010627;28;20029;-62
2023/01/05 09:26:40;;;;;;;6.88;0.98;;;;;;;10.57;100.00;99412.88;5030089;28;20112;-61
2023/01/05 09:29:06;;;;;;;5.45;1.00;;;;;;;10.63;100.00;99413.97;5012271;28;20325;-61
2023/01/05 09:31:32;;;;;;;5.35;0.90;;;;;;;10.71;100.00;99411.16;5011524;28;20100;-61
2023/01/05 09:34:01;;;;;;;6.82;0.98;;;;;;;10.72;100.00;99418.28;5014568;28;20048;-57
2023/01/05 09:36:27;;;;;;;6.93;0.90;;;;;;;10.78;100.00;99416.66;5010110;28;20083;-58
2023/01/05 09:38:55;;;;;;;3.55;0.82;;;;;;;10.87;100.00;99424.50;5012487;28;20037;-57
2023/01/05 09:41:29;;;;;;;13.20;1.63;;;;;;;10.96;100.00;99427.94;5008619;28;20061;-57
2023/01/05 09:43:58;;;;;;;2.35;0.80;;;;;;;10.94;100.00;99427.28;5000855;28;20037;-57
2023/01/05 09:46:30;;;;;;;10.43;1.23;;;;;;;10.94;100.00;99438.09;5011756;28;20034;-57
2023/01/05 09:49:00;;;;;;;3.78;1.17;;;;;;;10.99;100.00;99434.81;5020277;28;20052;-61
2023/01/05 09:51:27;;;;;;;12.23;1.10;;;;;;;10.95;100.00;99439.75;5009858;28;20039;-57
2023/01/05 09:53:52;;;;;;;6.18;0.90;;;;;;;11.00;100.00;99440.03;5010733;28;20116;-57
2023/01/05 09:56:30;;;;;;;5.82;1.08;;;;;;;11.09;100.00;99438.06;5005414;28;20112;-57
2023/01/05 09:59:23;;;;;;;7.10;1.40;;;;;;;11.07;100.00;99434.72;5017198;28;20029;-57
2023/01/05 10:01:49;;;;;;;4.20;1.08;;;;;;;11.17;100.00;99440.66;5015157;28;20040;-61
2023/01/05 10:04:22;;;;;;;9.95;1.13;;;;;;;11.09;100.00;99436.19;5010335;28;20463;-61
2023/01/05 10:06:54;;;;;;;6.07;0.88;;;;;;;11.04;100.00;99449.47;5008791;28;20507;-60
2023/01/05 10:09:22;;;;;;;7.63;1.33;;;;;;;10.92;100.00;99437.44;5004427;28;20030;-61
2023/01/05 10:14:52;;;;;;;7.97;1.02;;;;;;;11.01;100.00;99439.03;5030068;28;20619;-61
2023/01/05 10:17:22;;;;;;;8.80;1.17;;;;;;;11.02;100.00;99437.97;5017895;28;20040;-60
2023/01/05 10:19:49;;;;;;;10.65;1.55;;;;;;;11.16;100.00;99441.66;5008109;28;20631;-57
2023/01/05 10:22:59;;;;;;;12.98;2.17;;;;;;;11.15;100.00;99432.72;5003966;28;20059;-57
2023/01/05 10:25:38;;;;;;;8.60;1.10;;;;;;;10.99;100.00;99430.25;4991894;28;20068;-57
2023/01/05 10:28:06;;;;;;;8.77;1.15;;;;;;;11.00;100.00;99429.19;5014412;28;20053;-57
2023/01/05 10:30:49;;;;;;;7.03;1.48;;;;;;;10.89;100.00;99429.72;5005085;28;20025;-57
2023/01/05 10:33:31;;;;;;;12.88;1.38;;;;;;;11.01;100.00;99430.06;5017659;28;20115;-57
2023/01/05 10:36:11;;;;;;;9.90;1.40;;;;;;;11.05;100.00;99421.34;5011090;28;20040;-57
2023/01/05 10:39:03;;;;;;;9.95;1.38;;;;;;;11.08;100.00;99434.53;4997436;28;20022;-57
2023/01/05 10:41:41;;;;;;;13.73;1.77;;;;;;;11.01;100.00;99430.91;5005228;28;20031;-57
2023/01/05 10:44:43;;;;;;;15.23;1.60;;;;;;;10.91;100.00;99425.78;4997426;28;20037;-57
2023/01/05 10:47:11;;;;;;;7.57;1.55;;;;;;;10.85;100.00;99428.44;5009515;28;20039;-57
2023/01/05 10:49:40;;;;;;;9.15;1.38;;;;;;;10.81;100.00;99433.34;5009274;28;20420;-61
2023/01/05 10:52:11;;;;;;;16.23;1.85;;;;;;;10.81;100.00;99424.41;5000339;28;20068;-57
2023/01/05 10:54:49;;;;;;;9.75;1.50;;;;;;;10.95;100.00;99435.22;5003034;28;20528;-61
2023/01/05 10:57:27;;;;;;;12.98;1.92;;;;;;;10.92;100.00;99426.63;5008221;28;20033;-61
2023/01/05 10:59:54;;;;;;;10.15;1.45;;;;;;;11.00;100.00;99429.19;5022992;28;20037;-61
2023/01/05 11:02:19;;;;;;;8.02;1.50;;;;;;;10.97;100.00;99429.59;4998499;28;20025;-62
2023/01/05 11:04:49;;;;;;;7.65;1.23;;;;;;;10.86;100.00;99427.38;5004155;28;20083;-61
2023/01/05 11:07:14;;;;;;;9.20;1.52;;;;;;;11.00;100.00;99425.66;5001769;28;20038;-61
2023/01/05 11:09:43;;;;;;;13.40;1.75;;;;;;;11.19;100.00;99433.19;5002298;28;20036;-62
2023/01/05 11:12:18;;;;;;;8.23;1.95;;;;;;;11.09;100.00;99427.25;5003219;28;20033;-61
2023/01/05 11:14:48;;;;;;;9.50;1.40;;;;;;;11.08;100.00;99434.53;5012435;28;20037;-61
2023/01/05 11:17:20;;;;;;;12.43;1.15;;;;;;;11.00;100.00;99423.78;5009530;28;20022;-61
2023/01/05 11:19:50;;;;;;;9.88;1.50;;;;;;;11.15;100.00;99430.00;5003569;28;20147;-61
2023/01/05 11:22:36;;;;;;;16.42;1.77;;;;;;;11.14;100.00;99431.03;5011709;28;20485;-61
2023/01/05 11:25:28;;;;;;;11.05;1.52;;;;;;;10.85;100.00;99439.25;5010028;28;20124;-60
2023/01/05 11:28:16;;;;;;;8.10;1.17;;;;;;;11.00;100.00;99428.38;5017054;28;20659;-61
2023/01/05 11:30:59;;;;;;;10.00;1.50;;;;;;;11.22;100.00;99440.09;5008835;28;20122;-60
2023/01/05 11:33:27;;;;;;;10.55;2.03;;;;;;;11.18;100.00;99440.44;5014364;28;20068;-61
2023/01/05 11:35:54;;;;;;;8.90;1.50;;;;;;;11.27;100.00;99429.53;5014294;28;20034;-57
2023/01/05 11:38:30;;;;;;;15.13;1.85;;;;;;;11.26;100.00;99435.94;5029533;28;20061;-57
2023/01/05 11:40:57;;;;;;;12.90;1.77;;;;;;;11.17;100.00;99433.38;5010265;28;20025;-60
2023/01/05 11:43:30;;;;;;;11.68;1.58;;;;;;;11.15;100.00;99432.72;5022009;28;20064;-60
2023/01/05 11:45:59;;;;;;;10.07;1.67;;;;;;;11.11;100.00;99436.84;5010197;28;20029;-60
2023/01/05 11:48:28;;;;;;;5.85;1.55;;;;;;;10.97;100.00;99429.59;5010389;28;20036;-61
2023/01/05 11:50:55;;;;;;;;;;;;;;;11.04;100.00;99433.22;4997670;28;20025;-60
2023/01/05 11:53:23;;;;;;;9.60;1.25;;;;;;;11.25;100.00;99437.00;4999526;28;19923;-60
2023/01/05 11:56:02;;;;;;;12.02;1.55;;;;;;;11.08;100.00;99437.25;5023258;28;20400;-61
2023/01/05 11:58:40;;;;;;;14.55;1.80;;;;;;;11.19;100.00;99433.19;5011586;28;20025;-61
2023/01/05 12:01:27;;;;;;;9.55;1.52;;;;;;;11.07;100.00;99438.25;5008088;28;20028;-61
2023/01/05 12:04:13;;;;;;;14.13;2.20;;;;;;;10.92;100.00;99440.97;5015744;28;20038;-61
2023/01/05 12:06:57;;;;;;;8.88;1.50;;;;;;;11.00;100.00;99440.03;5003884;28;21509;-60
2023/01/05 12:09:33;;;;;;;11.23;1.95;;;;;;;10.91;100.00;99427.66;5015728;28;20033;-61
2023/01/05 12:12:29;;;;;;;10.70;1.35;;;;;;;10.93;100.00;99436.44;4993845;28;20371;-60
2023/01/05 12:14:57;;;;;;;8.63;1.48;;;;;;;10.82;100.00;99426.94;5001235;28;20103;-61